Time;durP1;ratioP1;P1;durP2;ratioP2;P2;SDS_P1;SDS_P2;PMS_P1;PMS_P2;Temp;Humidity;BMP_temperature;BMP_pressure;BME280_temperature;BME280_humidity;BME280_pressure;Samples;Min_cycle;Max_cycle;Signal;HPM_P1;HPM_P2
2023/01/02 00:00:28;;;;;;;6.15;2.63;;;;;;;13.89;50.28;101245.44;7394362;19;20003;-59
2023/01/02 00:02:54;;;;;;;7.00;2.67;;;;;;;14.02;49.88;101229.69;7391468;19;20099;-60
2023/01/02 00:05:20;;;;;;;8.02;2.78;;;;;;;13.95;50.02;101227.56;7394319;19;20006;-61
2023/01/02 00:07:45;;;;;;;6.80;2.45;;;;;;;14.08;49.79;101222.78;7395434;19;20017;-60
2023/01/02 00:10:11;;;;;;;6.22;2.33;;;;;;;14.16;49.51;101218.25;7393670;19;20026;-59
2023/01/02 00:12:37;;;;;;;6.80;2.33;;;;;;;14.12;49.89;101217.38;7394419;19;20450;-59
2023/01/02 00:15:03;;;;;;;7.53;2.72;;;;;;;14.09;49.86;101209.84;7394953;19;19998;-59
2023/01/02 00:17:29;;;;;;;7.72;3.00;;;;;;;14.09;49.91;101190.66;7395499;19;20006;-59
2023/01/02 00:19:55;;;;;;;8.77;3.33;;;;;;;13.98;50.12;101196.69;7393879;19;20006;-59
2023/01/02 00:22:21;;;;;;;13.00;4.32;;;;;;;14.00;50.21;101182.59;7393567;19;20089;-59
2023/01/02 00:24:47;;;;;;;10.48;3.70;;;;;;;13.97;50.06;101167.63;7395008;19;20011;-59
2023/01/02 00:27:14;;;;;;;11.05;3.35;;;;;;;14.00;50.04;101177.91;7394567;19;20002;-60
2023/01/02 00:29:39;;;;;;;8.38;3.05;;;;;;;14.05;50.22;101174.09;7392177;19;20115;-59
2023/01/02 00:32:05;;;;;;;7.03;2.83;;;;;;;14.09;49.80;101174.19;7394290;19;19999;-59
2023/01/02 00:34:31;;;;;;;6.82;2.63;;;;;;;14.01;49.88;101163.03;7394029;19;19995;-59
2023/01/02 00:36:56;;;;;;;6.82;2.72;;;;;;;14.07;49.95;101156.09;7394259;19;20028;-59
2023/01/02 00:39:22;;;;;;;7.20;2.75;;;;;;;14.04;50.01;101145.88;7394158;19;20003;-59
2023/01/02 00:41:48;;;;;;;7.18;2.83;;;;;;;14.01;49.90;101156.72;7393451;19;20003;-59
2023/01/02 00:44:14;;;;;;;8.07;2.67;;;;;;;13.93;50.13;101155.78;7394058;19;19998;-59
2023/01/02 00:46:39;;;;;;;9.27;2.88;;;;;;;13.91;50.11;101146.31;7394071;19;20006;-60
2023/01/02 00:49:05;;;;;;;8.18;2.83;;;;;;;13.81;50.65;101144.88;7393823;19;20006;-60
2023/01/02 00:51:31;;;;;;;7.03;2.50;;;;;;;13.88;50.33;101147.81;7389676;19;20010;-59
2023/01/02 00:53:57;;;;;;;8.43;2.90;;;;;;;13.97;50.15;101134.69;7391254;19;20002;-60
2023/01/02 00:56:22;;;;;;;7.05;2.65;;;;;;;13.91;50.41;101130.66;7394136;19;20015;-59
2023/01/02 00:58:48;;;;;;;6.50;2.72;;;;;;;13.91;50.07;101124.34;7393966;19;20032;-59
2023/01/02 01:01:20;;;;;;;9.20;3.00;;;;;;;13.95;49.92;101115.06;7390998;19;19991;-60
2023/01/02 01:03:46;;;;;;;7.20;2.50;;;;;;;13.78;50.29;101105.22;7391287;19;20092;-60
2023/01/02 01:06:13;;;;;;;7.22;2.45;;;;;;;13.84;50.09;101120.31;7391760;19;19995;-60
2023/01/02 01:08:39;;;;;;;7.93;2.85;;;;;;;13.94;49.76;101123.66;7396628;19;20007;-61
2023/01/02 01:11:06;;;;;;;4.70;2.05;;;;;;;13.96;49.75;101115.84;7395710;19;20429;-59
2023/01/02 01:13:32;;;;;;;7.25;2.70;;;;;;;13.96;49.78;101100.19;7397487;19;20033;-60
2023/01/02 01:16:09;;;;;;;6.20;2.60;;;;;;;13.82;49.97;101094.34;7397435;19;20002;-60
2023/01/02 01:18:36;;;;;;;9.57;2.75;;;;;;;13.88;50.16;101092.94;7397358;19;19995;-61
2023/01/02 01:21:06;;;;;;;6.50;2.63;;;;;;;13.82;50.19;101084.16;7395003;19;20003;-59
2023/01/02 01:23:32;;;;;;;5.72;2.58;;;;;;;13.84;49.93;101086.56;7396178;19;20002;-59
2023/01/02 01:25:58;;;;;;;7.30;2.90;;;;;;;13.88;50.13;101077.28;7397195;19;20013;-60
2023/01/02 01:28:24;;;;;;;8.57;3.17;;;;;;;13.87;49.92;101072.16;7396650;19;19999;-59
2023/01/02 01:30:49;;;;;;;6.97;2.65;;;;;;;13.86;50.23;101068.63;7394269;19;19995;-59
2023/01/02 01:33:15;;;;;;;8.20;3.10;;;;;;;13.99;49.84;101072.00;7394233;19;19986;-58
2023/01/02 01:35:41;;;;;;;9.73;3.17;;;;;;;13.94;50.16;101068.75;7394194;19;20434;-58
2023/01/02 01:38:07;;;;;;;7.55;2.67;;;;;;;13.97;49.94;101057.06;7396009;19;20054;-59
2023/01/02 01:40:37;;;;;;;7.50;2.60;;;;;;;14.06;49.61;101061.22;7395378;19;20106;-59
2023/01/02 01:43:03;;;;;;;6.28;2.63;;;;;;;13.99;49.80;101058.28;7393371;19;20002;-62
2023/01/02 01:45:29;;;;;;;9.27;3.20;;;;;;;14.06;49.70;101061.22;7396679;19;20078;-62
2023/01/02 01:47:59;;;;;;;10.80;2.95;;;;;;;14.00;49.82;101061.84;7395011;19;20326;-61
2023/01/02 01:50:31;;;;;;;7.60;2.65;;;;;;;13.86;50.16;101065.06;7394774;19;20003;-62
2023/01/02 01:53:00;;;;;;;9.13;3.05;;;;;;;13.85;50.33;101066.22;7395219;19;20003;-61
2023/01/02 01:55:33;;;;;;;8.45;2.70;;;;;;;13.93;50.19;101072.66;7395965;19;20009;-61
2023/01/02 01:58:12;;;;;;;7.80;2.90;;;;;;;13.58;50.72;101068.72;7396210;19;20434;-61
2023/01/02 02:00:40;;;;;;;7.97;2.80;;;;;;;13.39;51.41;101079.59;7394279;19;20001;-60
2023/01/02 02:03:13;;;;;;;7.05;3.13;;;;;;;13.60;50.86;101080.13;7393154;19;20024;-60
2023/01/02 02:05:41;;;;;;;9.65;3.00;;;;;;;13.62;50.78;101075.06;7395631;19;20015;-61
2023/01/02 02:08:36;;;;;;;7.55;2.83;;;;;;;13.77;50.39;101078.94;7395644;19;19997;-61
2023/01/02 02:11:02;;;;;;;11.93;3.17;;;;;;;13.79;50.14;101078.59;7388183;19;20022;-60
2023/01/02 02:13:31;;;;;;;9.27;3.08;;;;;;;13.86;50.23;101076.03;7389222;19;20006;-60
2023/01/02 02:16:02;;;;;;;10.73;3.25;;;;;;;13.92;50.23;101071.88;7391628;19;20003;-61
2023/01/02 02:18:55;;;;;;;8.80;3.33;;;;;;;13.60;50.86;101051.91;7391677;19;19995;-61
2023/01/02 02:21:56;;;;;;;7.87;3.03;;;;;;;13.72;50.52;101045.50;7388867;19;20034;-59
2023/01/02 02:24:38;;;;;;;7.88;3.08;;;;;;;13.80;50.39;101044.53;7388489;19;19995;-60
2023/01/02 02:27:26;;;;;;;8.27;3.03;;;;;;;13.88;50.19;101038.06;7391026;19;20033;-60
2023/01/02 02:30:21;;;;;;;8.18;2.67;;;;;;;13.93;50.05;101040.53;7389884;19;20352;-59
2023/01/02 02:32:58;;;;;;;9.10;3.30;;;;;;;13.60;50.98;101033.50;7388198;19;20022;-59
2023/01/02 02:35:32;;;;;;;9.43;2.97;;;;;;;13.66;51.10;101029.34;7390617;19;20459;-59
2023/01/02 02:38:32;;;;;;;7.85;3.13;;;;;;;13.74;50.46;101021.25;7391144;19;20058;-59
2023/01/02 02:41:23;;;;;;;8.00;3.13;;;;;;;13.68;50.72;101021.53;7389220;19;19999;-59
2023/01/02 02:44:15;;;;;;;9.35;3.08;;;;;;;13.75;50.80;101015.41;7390665;19;20050;-59
2023/01/02 02:46:55;;;;;;;12.18;3.03;;;;;;;13.78;50.63;101022.16;7390794;19;19999;-59
2023/01/02 02:49:24;;;;;;;9.60;3.05;;;;;;;13.78;51.07;101016.66;7390105;19;20003;-59
2023/01/02 02:52:02;;;;;;;9.98;3.00;;;;;;;13.85;50.63;101023.13;7388008;19;20038;-59
2023/01/02 02:54:39;;;;;;;10.57;2.97;;;;;;;13.88;50.74;101027.09;7397185;19;20073;-59
2023/01/02 02:57:07;;;;;;;11.98;3.45;;;;;;;14.10;50.33;101011.09;7396792;19;20103;-60
2023/01/02 02:59:35;;;;;;;10.32;3.40;;;;;;;14.10;50.41;101011.09;7396453;19;20007;-59
2023/01/02 03:02:03;;;;;;;8.13;2.97;;;;;;;14.11;50.37;101009.91;7396700;19;20007;-58
2023/01/02 03:04:29;;;;;;;10.35;3.50;;;;;;;14.17;50.28;101006.53;7396878;19;20010;-58
2023/01/02 03:06:58;;;;;;;9.68;3.83;;;;;;;14.02;50.76;101010.94;7396238;19;19999;-59
2023/01/02 03:10:00;;;;;;;11.35;3.35;;;;;;;13.97;51.04;101010.44;7397052;19;20026;-59
2023/01/02 03:12:37;;;;;;;10.13;3.20;;;;;;;14.13;50.85;100999.38;7395319;19;20012;-59
2023/01/02 03:15:25;;;;;;;11.75;3.72;;;;;;;14.11;50.80;101004.44;7397629;19;20138;-59
2023/01/02 03:18:08;;;;;;;9.52;3.30;;;;;;;14.33;50.33;101008.41;7395839;19;20002;-59
2023/01/02 03:20:46;;;;;;;11.85;3.50;;;;;;;14.33;50.34;101003.72;7394387;19;20003;-59
2023/01/02 03:23:19;;;;;;;8.90;3.25;;;;;;;14.02;51.31;100999.16;7393552;19;20048;-59
2023/01/02 03:25:46;;;;;;;12.57;3.55;;;;;;;13.97;51.58;101002.97;7397548;19;20074;-59
2023/01/02 03:28:15;;;;;;;13.57;3.75;;;;;;;14.22;51.13;100997.22;7396929;19;20114;-59
2023/01/02 03:30:44;;;;;;;11.30;3.33;;;;;;;14.44;50.52;100990.19;7392997;19;20003;-60
2023/01/02 03:33:15;;;;;;;8.75;3.63;;;;;;;14.20;51.01;100994.03;7396064;19;20010;-59
2023/01/02 03:35:49;;;;;;;11.98;3.85;;;;;;;14.36;50.93;100997.50;7397004;19;20003;-59
2023/01/02 03:38:19;;;;;;;;;;;;;;;13.97;51.63;100986.50;7397258;19;20006;-59
2023/01/02 03:40:54;;;;;;;15.63;4.60;;;;;;;14.30;50.79;100990.72;7393475;19;19918;-59
2023/01/02 03:43:24;;;;;;;10.60;3.20;;;;;;;14.39;50.93;100993.22;7395562;19;20037;-59
2023/01/02 03:45:55;;;;;;;9.77;3.58;;;;;;;14.42;50.93;101000.75;7395566;19;20613;-59
2023/01/02 03:48:24;;;;;;;10.98;3.25;;;;;;;14.45;50.93;100989.03;7396145;19;20014;-59
2023/01/02 03:50:52;;;;;;;10.18;3.22;;;;;;;14.51;50.83;100990.34;7393773;19;20220;-59
2023/01/02 03:53:19;;;;;;;12.00;3.70;;;;;;;14.48;50.74;100993.00;7395711;19;20455;-59
2023/01/02 03:56:14;;;;;;;9.48;3.30;;;;;;;14.50;50.72;100999.72;7396393;19;19998;-59
2023/01/02 03:58:48;;;;;;;11.38;3.60;;;;;;;14.40;51.12;100998.38;7395587;19;19999;-59
2023/01/02 04:01:23;;;;;;;10.80;3.17;;;;;;;14.49;50.78;100994.59;7391458;19;20007;-60
2023/01/02 04:04:02;;;;;;;9.88;3.08;;;;;;;14.13;51.97;100994.69;7393240;19;20439;-59
2023/01/02 04:06:32;;;;;;;11.27;3.60;;;;;;;14.19;51.86;100989.69;7395658;19;20467;-59
2023/01/02 04:09:21;;;;;;;12.73;3.42;;;;;;;14.03;52.27;100996.06;7395452;19;20029;-59
2023/01/02 04:11:54;;;;;;;13.70;3.92;;;;;;;14.40;51.41;100995.63;7395809;19;20006;-59
2023/01/02 04:14:24;;;;;;;;;;;;;;;14.14;51.96;101000.97;7395227;19;20006;-59
2023/01/02 04:16:53;;;;;;;9.50;3.35;;;;;;;14.49;51.34;101005.59;7395338;19;19922;-59
2023/01/02 04:19:29;;;;;;;12.60;3.92;;;;;;;14.59;50.81;101000.28;7394812;19;20002;-59
2023/01/02 04:21:58;;;;;;;11.93;3.67;;;;;;;14.47;51.24;100994.19;7394167;19;19995;-60
2023/01/02 04:24:33;;;;;;;8.23;3.38;;;;;;;14.56;51.02;100989.22;7391946;19;20436;-60
2023/01/02 04:27:06;;;;;;;14.90;3.83;;;;;;;14.40;51.44;100997.56;7394855;19;20039;-60
2023/01/02 04:29:32;;;;;;;;;;;;;;;14.01;52.68;101000.31;7392720;19;20573;-60
2023/01/02 04:32:19;;;;;;;11.40;3.38;;;;;;;13.90;53.06;101008.31;7395076;19;19930;-60
2023/01/02 04:34:47;;;;;;;13.32;4.30;;;;;;;14.10;52.62;101003.66;7394684;19;20011;-60
2023/01/02 04:37:34;;;;;;;12.77;3.50;;;;;;;14.25;52.39;101007.47;7394594;19;20477;-60
2023/01/02 04:40:07;;;;;;;10.48;3.55;;;;;;;14.18;52.68;101008.13;7392043;19;20006;-60
2023/01/02 04:42:32;;;;;;;11.63;3.40;;;;;;;14.33;52.26;101003.72;7392341;19;19998;-59
2023/01/02 04:44:58;;;;;;;10.85;3.72;;;;;;;14.40;51.85;101003.84;7393905;19;20466;-62
2023/01/02 04:47:24;;;;;;;10.15;3.63;;;;;;;13.85;53.49;101005.88;7394611;19;19995;-59
2023/01/02 04:49:50;;;;;;;14.35;4.00;;;;;;;13.70;54.14;101008.25;7393684;19;20028;-60
2023/01/02 04:52:15;;;;;;;14.00;4.47;;;;;;;14.02;53.26;101007.41;7391606;19;19998;-59
2023/01/02 04:54:41;;;;;;;11.07;3.67;;;;;;;13.98;53.36;101009.28;7393276;19;19991;-60
2023/01/02 04:57:07;;;;;;;10.63;3.60;;;;;;;13.87;53.69;101006.28;7392618;19;19999;-61
2023/01/02 04:59:32;;;;;;;11.57;3.83;;;;;;;13.86;53.85;101002.78;7392804;19;19998;-61
2023/01/02 05:01:58;;;;;;;11.77;3.67;;;;;;;13.98;53.66;100999.09;7393047;19;20411;-60
2023/01/02 05:04:24;;;;;;;8.77;3.47;;;;;;;13.66;54.88;100993.69;7393534;19;19991;-61
2023/01/02 05:06:56;;;;;;;12.50;3.72;;;;;;;13.91;54.13;100985.22;7393941;19;19999;-60
2023/01/02 05:09:21;;;;;;;12.25;3.88;;;;;;;13.71;54.90;100995.34;7392923;19;20026;-61
2023/01/02 05:11:47;;;;;;;8.90;3.80;;;;;;;13.85;54.22;100984.69;7392857;19;20002;-61
2023/01/02 05:14:13;;;;;;;11.68;4.25;;;;;;;13.76;54.90;100991.50;7391254;19;20088;-61
2023/01/02 05:16:39;;;;;;;12.75;3.97;;;;;;;13.97;54.12;100992.00;7393192;19;20015;-62
2023/01/02 05:19:04;;;;;;;9.50;3.70;;;;;;;13.92;54.42;100981.31;7393250;19;19998;-61
2023/01/02 05:24:15;;;;;;;8.88;3.83;;;;;;;14.13;54.09;100988.41;7390639;19;20025;-61
2023/01/02 05:26:41;;;;;;;9.57;3.95;;;;;;;14.05;54.31;100988.25;7392203;19;20006;-60
2023/01/02 05:29:07;;;;;;;11.68;3.63;;;;;;;14.03;54.29;100979.59;7391601;19;20319;-60
2023/01/02 05:31:32;;;;;;;10.32;3.90;;;;;;;13.94;54.94;100984.50;7392505;19;20014;-61
2023/01/02 05:33:58;;;;;;;11.35;4.57;;;;;;;14.29;54.03;100982.84;7390235;19;20003;-61
2023/01/02 05:36:25;;;;;;;13.02;4.18;;;;;;;14.29;53.87;100983.63;7392720;19;20025;-61
2023/01/02 05:38:51;;;;;;;11.63;3.90;;;;;;;13.88;55.13;100985.94;7391037;19;19999;-61
2023/01/02 05:41:19;;;;;;;10.05;3.67;;;;;;;14.03;54.62;100993.31;7388474;19;20348;-62
2023/01/02 05:43:44;;;;;;;12.00;3.83;;;;;;;13.90;54.85;100994.59;7390755;19;20059;-61
2023/01/02 05:46:16;;;;;;;12.05;4.30;;;;;;;14.13;54.29;100999.38;7393405;19;20039;-62
2023/01/02 05:48:42;;;;;;;11.45;4.13;;;;;;;14.12;54.52;101006.03;7393185;19;19991;-61
2023/01/02 05:51:10;;;;;;;12.30;3.92;;;;;;;14.16;54.52;100999.47;7390384;19;20454;-61
2023/01/02 05:53:37;;;;;;;12.95;4.70;;;;;;;14.18;54.34;100999.13;7391730;19;20002;-61
2023/01/02 05:56:09;;;;;;;11.63;4.05;;;;;;;14.18;54.40;100997.16;7391952;19;20081;-60
2023/01/02 05:58:37;;;;;;;13.43;4.07;;;;;;;14.43;53.68;101003.13;7390618;19;20003;-61
2023/01/02 06:01:11;;;;;;;10.32;3.97;;;;;;;14.14;54.27;100995.47;7389633;19;20470;-61
2023/01/02 06:03:37;;;;;;;12.23;3.95;;;;;;;14.13;54.75;101004.88;7390045;19;20070;-61
2023/01/02 06:06:08;;;;;;;12.02;3.67;;;;;;;14.35;53.70;100993.16;7391645;19;20407;-61
2023/01/02 06:08:35;;;;;;;15.05;4.57;;;;;;;14.20;54.31;100988.56;7392373;19;20039;-62
2023/01/02 06:11:02;;;;;;;9.77;4.05;;;;;;;14.09;54.45;100987.53;7390470;19;20322;-60
2023/01/02 06:13:29;;;;;;;12.27;3.47;;;;;;;14.33;54.00;100981.75;7390990;19;20006;-59
2023/01/02 06:15:56;;;;;;;9.23;3.28;;;;;;;14.54;53.32;100978.59;7391057;19;20026;-59
2023/01/02 06:18:22;;;;;;;8.55;3.63;;;;;;;14.52;53.31;100991.91;7392422;19;20011;-60
2023/01/02 06:20:48;;;;;;;9.30;3.80;;;;;;;14.47;53.60;100986.72;7388288;19;20462;-60
2023/01/02 06:23:13;;;;;;;12.20;4.40;;;;;;;14.50;53.26;100985.22;7388775;19;20074;-60
2023/01/02 06:25:39;;;;;;;10.48;3.83;;;;;;;14.34;53.62;100982.53;7391089;19;20005;-60
2023/01/02 06:28:05;;;;;;;10.27;3.65;;;;;;;14.34;53.75;100988.03;7389165;19;19995;-60
2023/01/02 06:30:31;;;;;;;12.38;4.07;;;;;;;14.20;53.93;100988.56;7389031;19;19999;-60
2023/01/02 06:33:03;;;;;;;9.88;3.70;;;;;;;14.23;53.93;100987.84;7388971;19;20006;-60
2023/01/02 06:35:29;;;;;;;10.70;3.90;;;;;;;14.31;53.77;100994.25;7391119;19;20033;-61
2023/01/02 06:37:54;;;;;;;9.25;3.95;;;;;;;14.34;53.52;100994.31;7390761;19;19998;-61
2023/01/02 06:40:20;;;;;;;11.18;4.20;;;;;;;14.36;53.59;100991.22;7389945;19;20382;-60
2023/01/02 06:42:46;;;;;;;12.27;4.05;;;;;;;14.08;54.36;101000.47;7388605;19;19990;-60
2023/01/02 06:45:12;;;;;;;12.40;4.18;;;;;;;14.24;53.81;100992.16;7388834;19;20008;-59
2023/01/02 06:47:37;;;;;;;9.40;4.07;;;;;;;14.47;53.29;101002.41;7390127;19;20302;-60
2023/01/02 06:50:03;;;;;;;10.70;4.20;;;;;;;14.53;53.08;100995.44;7388526;19;20463;-60
2023/01/02 06:52:29;;;;;;;11.60;4.22;;;;;;;14.49;52.94;101005.59;7387431;19;19998;-59
2023/01/02 06:54:55;;;;;;;11.70;4.25;;;;;;;14.23;53.67;100994.13;7389935;19;20002;-59
2023/01/02 06:57:20;;;;;;;12.05;4.57;;;;;;;14.03;53.91;100998.81;7390779;19;20521;-60
2023/01/02 06:59:46;;;;;;;16.58;4.15;;;;;;;14.12;54.05;100995.06;7389790;19;19999;-60
2023/01/02 07:02:13;;;;;;;9.48;4.00;;;;;;;14.21;53.47;100993.69;7386953;19;20471;-59
2023/01/02 07:04:39;;;;;;;12.35;3.95;;;;;;;14.33;53.29;100992.75;7389459;19;20006;-60
2023/01/02 07:07:05;;;;;;;10.40;3.60;;;;;;;14.47;52.97;100991.44;7390045;19;20003;-59
2023/01/02 07:09:31;;;;;;;8.73;4.10;;;;;;;14.07;53.79;100994.16;7389608;19;19998;-59
2023/01/02 07:11:59;;;;;;;9.98;3.67;;;;;;;14.41;52.79;100988.97;7389897;19;19999;-59
2023/01/02 07:14:25;;;;;;;10.95;4.15;;;;;;;14.28;53.23;100990.28;7388904;19;19997;-59
2023/01/02 07:16:51;;;;;;;12.07;4.22;;;;;;;14.38;53.10;100989.69;7388148;19;19991;-59
2023/01/02 07:19:17;;;;;;;11.73;3.70;;;;;;;14.30;53.11;100990.72;7389567;19;20435;-61
2023/01/02 07:21:43;;;;;;;11.07;4.20;;;;;;;14.47;52.59;100975.75;7389552;19;19998;-62
2023/01/02 07:24:14;;;;;;;12.85;4.47;;;;;;;14.48;52.66;100987.50;7389853;19;20032;-62
2023/01/02 07:26:40;;;;;;;9.70;3.78;;;;;;;14.37;52.99;100988.09;7389522;19;19999;-64
2023/01/02 07:29:06;;;;;;;12.40;4.10;;;;;;;14.42;52.75;100984.28;7387809;19;20003;-60
2023/01/02 07:31:32;;;;;;;9.88;4.00;;;;;;;14.23;53.27;100988.63;7388891;19;19990;-60
2023/01/02 07:33:58;;;;;;;9.68;4.07;;;;;;;14.52;52.60;100999.38;7388995;19;20467;-59
2023/01/02 07:36:23;;;;;;;12.15;4.20;;;;;;;14.31;53.11;101006.03;7387137;19;20022;-60
2023/01/02 07:38:54;;;;;;;10.25;3.80;;;;;;;14.39;52.63;101006.97;7391606;19;19999;-60
2023/01/02 07:41:22;;;;;;;8.90;3.58;;;;;;;14.47;52.60;101007.91;7393824;19;20493;-59
2023/01/02 07:43:48;;;;;;;12.93;4.38;;;;;;;14.32;52.81;101026.84;7395380;19;19995;-59
2023/01/02 07:46:17;;;;;;;10.10;3.95;;;;;;;14.57;52.38;101023.78;7394754;19;19994;-59
2023/01/02 07:48:44;;;;;;;8.93;3.55;;;;;;;14.37;52.56;101023.78;7396596;19;20455;-59
2023/01/02 07:51:10;;;;;;;14.23;3.83;;;;;;;14.58;52.32;101033.63;7393457;19;20019;-58
2023/01/02 07:53:37;;;;;;;10.65;3.95;;;;;;;14.14;53.34;101031.16;7395417;19;20030;-59
2023/01/02 07:56:04;;;;;;;13.07;4.18;;;;;;;14.39;52.76;101029.72;7396150;19;20032;-59
2023/01/02 07:58:30;;;;;;;13.25;4.25;;;;;;;14.17;53.16;101030.44;7395274;19;20591;-59
2023/01/02 08:00:57;;;;;;;11.48;4.15;;;;;;;14.58;52.12;101030.88;7392060;19;20032;-59
2023/01/02 08:03:23;;;;;;;9.60;4.05;;;;;;;14.44;52.50;101042.38;7395719;19;20091;-60
2023/01/02 08:05:49;;;;;;;12.00;4.50;;;;;;;14.42;52.26;101042.72;7395891;19;20003;-60
2023/01/02 08:08:15;;;;;;;10.77;4.20;;;;;;;14.36;52.52;101033.22;7395195;19;20026;-60
2023/01/02 08:10:41;;;;;;;11.27;4.43;;;;;;;14.07;52.95;101035.34;7394595;19;20062;-60
2023/01/02 08:13:07;;;;;;;13.35;4.00;;;;;;;14.22;52.71;101057.63;7395350;19;20026;-60
2023/01/02 08:15:33;;;;;;;8.82;3.80;;;;;;;14.26;52.59;101044.75;7395536;19;20009;-60
2023/01/02 08:17:59;;;;;;;11.40;3.85;;;;;;;14.12;52.69;101053.47;7395498;19;20006;-60
2023/01/02 08:20:26;;;;;;;10.00;4.53;;;;;;;14.35;52.14;101048.09;7392536;19;20006;-59
2023/01/02 08:22:55;;;;;;;9.73;3.92;;;;;;;14.59;51.78;101055.22;7392057;19;20006;-59
2023/01/02 08:25:21;;;;;;;9.30;4.15;;;;;;;14.62;51.69;101053.72;7395427;19;20006;-59
2023/01/02 08:27:47;;;;;;;13.07;3.90;;;;;;;14.71;51.33;101062.53;7394777;19;20411;-59
2023/01/02 08:30:12;;;;;;;9.02;3.85;;;;;;;14.67;51.24;101047.91;7392010;19;20032;-59
2023/01/02 08:32:39;;;;;;;12.02;4.22;;;;;;;14.49;52.05;101057.75;7394129;19;20034;-59
2023/01/02 08:35:06;;;;;;;10.88;4.15;;;;;;;14.46;52.04;101058.47;7395590;19;20358;-59
2023/01/02 08:37:32;;;;;;;9.90;4.28;;;;;;;14.50;51.98;101060.16;7393200;19;20003;-59
2023/01/02 08:39:58;;;;;;;8.30;3.60;;;;;;;14.37;52.13;101059.50;7393872;19;20017;-59
2023/01/02 08:42:24;;;;;;;15.10;4.15;;;;;;;14.30;52.06;101070.34;7392390;19;20066;-59
2023/01/02 08:44:50;;;;;;;11.00;4.13;;;;;;;14.47;51.99;101084.81;7393845;19;20006;-58
2023/01/02 08:47:16;;;;;;;11.07;3.53;;;;;;;14.46;51.97;101080.44;7394147;19;20010;-61
2023/01/02 08:49:42;;;;;;;15.85;4.25;;;;;;;14.39;51.97;101076.41;7392963;19;20366;-60
2023/01/02 08:52:07;;;;;;;9.90;3.60;;;;;;;14.47;51.66;101073.81;7391419;19;20017;-59
2023/01/02 08:54:33;;;;;;;10.13;3.60;;;;;;;14.09;52.44;101078.13;7393700;19;20012;-60
2023/01/02 08:56:59;;;;;;;12.05;4.20;;;;;;;14.36;51.89;101085.38;7393933;19;20473;-61
2023/01/02 08:59:25;;;;;;;10.57;3.50;;;;;;;14.32;52.24;101092.72;7393110;19;19999;-61
2023/01/02 09:01:52;;;;;;;7.10;3.20;;;;;;;14.40;52.12;101096.44;7393047;19;20009;-60
2023/01/02 09:04:18;;;;;;;9.32;3.10;;;;;;;14.07;52.61;101089.44;7393295;19;20107;-60
2023/01/02 09:06:54;;;;;;;9.70;3.55;;;;;;;14.25;52.33;101095.34;7389732;19;20022;-60
2023/01/02 09:09:19;;;;;;;11.68;3.65;;;;;;;14.20;52.28;101088.16;7392939;19;21894;-59
2023/01/02 09:11:49;;;;;;;9.98;3.28;;;;;;;14.32;52.18;101098.22;7391849;19;19998;-60
2023/01/02 09:14:16;;;;;;;12.60;3.25;;;;;;;14.41;51.81;101115.31;7391095;19;20003;-60
2023/01/02 09:16:42;;;;;;;7.75;3.03;;;;;;;14.52;51.63;101115.50;7393086;19;20006;-59
2023/01/02 09:19:08;;;;;;;9.52;3.30;;;;;;;14.77;51.18;101104.25;7392433;19;19999;-58
2023/01/02 09:21:34;;;;;;;9.68;3.22;;;;;;;14.79;51.02;101119.22;7392793;19;20003;-60
2023/01/02 09:23:59;;;;;;;9.10;3.03;;;;;;;14.80;51.21;101120.03;7392494;19;19995;-60
2023/01/02 09:26:26;;;;;;;9.27;3.28;;;;;;;14.72;51.27;101123.75;7392284;19;20014;-58
2023/01/02 09:28:52;;;;;;;10.77;3.10;;;;;;;14.66;51.37;101128.72;7393131;19;20360;-60
2023/01/02 09:31:18;;;;;;;7.75;3.28;;;;;;;14.70;51.19;101132.38;7391260;19;20006;-59
2023/01/02 09:33:45;;;;;;;11.05;2.88;;;;;;;14.62;51.36;101130.63;7391617;19;20022;-60
2023/01/02 09:36:13;;;;;;;7.55;3.17;;;;;;;14.33;51.84;101135.53;7392742;19;20010;-60
2023/01/02 09:38:39;;;;;;;6.85;2.50;;;;;;;14.36;51.67;101139.47;7392331;19;20078;-59
2023/01/02 09:41:35;;;;;;;7.95;3.00;;;;;;;14.36;51.39;101136.72;7390879;19;20023;-60
2023/01/02 09:44:01;;;;;;;8.13;2.78;;;;;;;14.39;51.65;101147.78;7390364;19;19998;-60
2023/01/02 09:46:29;;;;;;;9.55;2.60;;;;;;;14.44;51.41;101150.28;7391037;19;20030;-60
2023/01/02 09:48:56;;;;;;;6.95;2.55;;;;;;;14.40;51.38;101145.88;7389644;19;20526;-60
2023/01/02 09:51:28;;;;;;;7.57;2.30;;;;;;;14.54;51.31;101161.84;7388842;19;20475;-60
2023/01/02 09:54:02;;;;;;;7.38;2.28;;;;;;;14.71;50.64;101161.44;7390772;19;20010;-60
2023/01/02 09:56:39;;;;;;;8.50;2.30;;;;;;;14.62;50.49;101149.84;7392259;19;20006;-60
2023/01/02 09:59:48;;;;;;;6.63;2.20;;;;;;;14.73;50.35;101159.13;7392444;19;20021;-60
2023/01/02 10:02:38;;;;;;;5.95;1.85;;;;;;;14.57;50.64;101172.13;7385571;19;20006;-59
2023/01/02 10:05:25;;;;;;;5.35;2.08;;;;;;;14.56;50.73;101178.75;7390752;19;20006;-59
2023/01/02 10:08:18;;;;;;;5.40;1.73;;;;;;;14.63;50.49;101187.97;7391572;19;20010;-59
2023/01/02 10:10:52;;;;;;;5.05;1.70;;;;;;;14.56;50.71;101203.47;7390735;19;20007;-59
2023/01/02 10:13:29;;;;;;;3.45;1.48;;;;;;;14.72;50.50;101201.47;7390865;19;20363;-59
2023/01/02 10:15:59;;;;;;;5.75;1.90;;;;;;;14.71;50.43;101199.09;7391101;19;20003;-59
2023/01/02 10:18:37;;;;;;;4.88;1.63;;;;;;;14.57;50.46;101216.84;7390466;19;20523;-59
2023/01/02 10:21:10;;;;;;;7.13;1.98;;;;;;;14.46;50.87;101226.00;7389094;19;20075;-59
2023/01/02 10:23:40;;;;;;;2.87;1.40;;;;;;;14.37;50.70;101228.94;7390749;19;20022;-59
2023/01/02 10:26:14;;;;;;;3.65;1.50;;;;;;;14.55;50.09;101234.88;7390710;19;20033;-59
2023/01/02 10:28:47;;;;;;;2.42;1.30;;;;;;;14.45;49.74;101252.69;7390384;19;20010;-60
2023/01/02 10:31:25;;;;;;;2.33;1.20;;;;;;;14.42;49.77;101254.19;7389231;19;19995;-60
2023/01/02 10:33:56;;;;;;;2.65;1.20;;;;;;;14.31;49.91;101269.63;7390790;19;19999;-60
2023/01/02 10:36:28;;;;;;;2.42;1.13;;;;;;;14.15;49.87;101277.06;7391631;19;20009;-60
2023/01/02 10:39:00;;;;;;;2.55;1.10;;;;;;;13.98;49.87;101279.00;7389284;19;20015;-60
2023/01/02 10:41:28;;;;;;;2.58;1.25;;;;;;;13.76;49.67;101287.78;7390429;19;20331;-60
2023/01/02 10:44:01;;;;;;;2.85;1.30;;;;;;;13.32;49.89;101305.78;7389651;19;20001;-60
2023/01/02 10:46:33;;;;;;;3.38;1.25;;;;;;;13.28;50.30;101304.13;7390908;19;20009;-60
2023/01/02 10:48:59;;;;;;;2.67;1.27;;;;;;;13.23;49.81;101307.09;7390556;19;20011;-60
2023/01/02 10:51:25;;;;;;;1.27;1.05;;;;;;;13.50;49.26;101321.97;7389248;19;20010;-60
2023/01/02 10:54:17;;;;;;;2.53;1.50;;;;;;;13.38;48.89;101319.28;7388636;19;20073;-60
2023/01/02 10:56:48;;;;;;;3.92;1.80;;;;;;;13.52;48.93;101344.34;7390326;19;20003;-59
2023/01/02 10:59:23;;;;;;;2.72;1.40;;;;;;;13.26;48.91;101340.09;7389563;19;20309;-62
2023/01/02 11:01:53;;;;;;;1.77;1.10;;;;;;;12.88;49.33;101348.72;7387250;19;20823;-60
2023/01/02 11:04:27;;;;;;;1.75;1.08;;;;;;;12.95;48.26;101351.69;7388491;19;20379;-60
2023/01/02 11:06:59;;;;;;;1.85;0.70;;;;;;;12.57;48.29;101361.81;7390006;19;20019;-60
2023/01/02 11:09:30;;;;;;;1.00;0.50;;;;;;;12.68;48.81;101377.81;7389357;19;20002;-60
2023/01/02 11:12:12;;;;;;;0.70;0.50;;;;;;;12.60;47.87;101360.34;7394392;19;20023;-60
2023/01/02 11:14:39;;;;;;;1.63;1.00;;;;;;;12.75;48.57;101372.53;7393538;19;20002;-60
2023/01/02 11:17:13;;;;;;;2.33;1.05;;;;;;;12.78;48.52;101374.59;7397482;19;20358;-59
2023/01/02 11:19:41;;;;;;;2.50;0.80;;;;;;;12.89;48.20;101380.44;7395804;19;20015;-60
2023/01/02 11:22:09;;;;;;;1.48;1.00;;;;;;;12.89;48.02;101410.56;7395888;19;19999;-59
2023/01/02 11:24:52;;;;;;;1.17;0.80;;;;;;;12.88;47.52;101404.31;7398717;19;20002;-59
2023/01/02 11:27:18;;;;;;;1.63;0.80;;;;;;;12.66;48.05;101413.75;7397153;19;20023;-60
2023/01/02 11:29:47;;;;;;;1.30;0.60;;;;;;;12.71;47.76;101410.00;7396986;19;20408;-61
2023/01/02 11:32:26;;;;;;;3.25;0.73;;;;;;;12.73;47.59;101396.75;7396471;19;20006;-61
2023/01/02 11:35:03;;;;;;;0.70;0.45;;;;;;;12.85;47.39;101412.38;7395033;19;20019;-61
2023/01/02 11:37:30;;;;;;;0.80;0.50;;;;;;;12.67;47.68;101436.44;7394691;19;20010;-61